sensor_id;sensor_type;location;lat;lon;timestamp;P1;durP1;ratioP1;P2;durP2;ratioP2
59607;SDS011;45426;44.726;10.390;2023-12-20T00:01:16;8.93;;;4.20;;
59607;SDS011;45426;44.726;10.390;2023-12-20T00:03:41;8.85;;;4.13;;
59607;SDS011;45426;44.726;10.390;2023-12-20T00:06:07;8.65;;;4.20;;
59607;SDS011;45426;44.726;10.390;2023-12-20T00:08:33;9.15;;;4.53;;
59607;SDS011;45426;44.726;10.390;2023-12-20T00:10:58;9.93;;;4.10;;
59607;SDS011;45426;44.726;10.390;2023-12-20T00:13:23;7.80;;;4.00;;
59607;SDS011;45426;44.726;10.390;2023-12-20T00:15:49;9.50;;;4.15;;
59607;SDS011;45426;44.726;10.390;2023-12-20T00:18:14;8.68;;;4.15;;
59607;SDS011;45426;44.726;10.390;2023-12-20T00:20:40;9.35;;;4.30;;
59607;SDS011;45426;44.726;10.390;2023-12-20T00:23:05;8.23;;;4.00;;
59607;SDS011;45426;44.726;10.390;2023-12-20T00:25:31;10.00;;;4.00;;
59607;SDS011;45426;44.726;10.390;2023-12-20T00:27:56;9.10;;;4.10;;
59607;SDS011;45426;44.726;10.390;2023-12-20T00:30:21;7.97;;;4.18;;
59607;SDS011;45426;44.726;10.390;2023-12-20T00:32:47;8.70;;;4.10;;
59607;SDS011;45426;44.726;10.390;2023-12-20T00:35:13;9.10;;;4.47;;
59607;SDS011;45426;44.726;10.390;2023-12-20T00:37:39;8.48;;;4.25;;
59607;SDS011;45426;44.726;10.390;2023-12-20T00:40:04;10.20;;;3.85;;
59607;SDS011;45426;44.726;10.390;2023-12-20T00:42:31;8.38;;;4.13;;
59607;SDS011;45426;44.726;10.390;2023-12-20T00:44:57;8.13;;;3.80;;
59607;SDS011;45426;44.726;10.390;2023-12-20T00:47:23;7.88;;;4.07;;
59607;SDS011;45426;44.726;10.390;2023-12-20T00:49:48;8.43;;;4.13;;
59607;SDS011;45426;44.726;10.390;2023-12-20T00:52:14;11.65;;;3.95;;
59607;SDS011;45426;44.726;10.390;2023-12-20T00:54:39;8.23;;;3.58;;
59607;SDS011;45426;44.726;10.390;2023-12-20T00:57:05;8.77;;;3.80;;
59607;SDS011;45426;44.726;10.390;2023-12-20T00:59:30;7.43;;;3.80;;
59607;SDS011;45426;44.726;10.390;2023-12-20T01:01:55;7.00;;;3.55;;
59607;SDS011;45426;44.726;10.390;2023-12-20T01:04:21;9.35;;;3.92;;
59607;SDS011;45426;44.726;10.390;2023-12-20T01:06:46;9.13;;;3.50;;
59607;SDS011;45426;44.726;10.390;2023-12-20T01:09:12;7.05;;;3.50;;
59607;SDS011;45426;44.726;10.390;2023-12-20T01:11:37;8.02;;;3.65;;
59607;SDS011;45426;44.726;10.390;2023-12-20T01:14:02;8.02;;;3.65;;
59607;SDS011;45426;44.726;10.390;2023-12-20T01:16:28;8.18;;;3.30;;
59607;SDS011;45426;44.726;10.390;2023-12-20T01:18:53;6.90;;;3.50;;
59607;SDS011;45426;44.726;10.390;2023-12-20T01:21:18;7.90;;;3.60;;
59607;SDS011;45426;44.726;10.390;2023-12-20T01:23:44;8.60;;;3.58;;
59607;SDS011;45426;44.726;10.390;2023-12-20T01:26:09;8.65;;;3.80;;
59607;SDS011;45426;44.726;10.390;2023-12-20T01:28:35;8.30;;;3.58;;
59607;SDS011;45426;44.726;10.390;2023-12-20T01:31:00;6.85;;;3.60;;
59607;SDS011;45426;44.726;10.390;2023-12-20T01:33:26;8.02;;;3.40;;
59607;SDS011;45426;44.726;10.390;2023-12-20T01:35:51;8.20;;;3.38;;
59607;SDS011;45426;44.726;10.390;2023-12-20T01:38:16;8.10;;;3.70;;
59607;SDS011;45426;44.726;10.390;2023-12-20T01:40:43;7.78;;;3.33;;
59607;SDS011;45426;44.726;10.390;2023-12-20T01:43:09;7.07;;;3.58;;
59607;SDS011;45426;44.726;10.390;2023-12-20T01:45:36;7.78;;;3.83;;
59607;SDS011;45426;44.726;10.390;2023-12-20T01:48:02;8.05;;;3.65;;
59607;SDS011;45426;44.726;10.390;2023-12-20T01:50:29;6.32;;;3.33;;
59607;SDS011;45426;44.726;10.390;2023-12-20T01:52:56;7.38;;;3.60;;
59607;SDS011;45426;44.726;10.390;2023-12-20T01:55:25;9.57;;;3.58;;
59607;SDS011;45426;44.726;10.390;2023-12-20T01:57:52;5.80;;;3.30;;
59607;SDS011;45426;44.726;10.390;2023-12-20T02:00:18;8.75;;;3.40;;
59607;SDS011;45426;44.726;10.390;2023-12-20T02:02:45;7.25;;;3.67;;
59607;SDS011;45426;44.726;10.390;2023-12-20T02:05:11;7.53;;;3.30;;
59607;SDS011;45426;44.726;10.390;2023-12-20T02:07:37;8.38;;;4.00;;
59607;SDS011;45426;44.726;10.390;2023-12-20T02:10:03;5.90;;;3.10;;
59607;SDS011;45426;44.726;10.390;2023-12-20T02:12:29;7.82;;;3.42;;
59607;SDS011;45426;44.726;10.390;2023-12-20T02:14:55;8.15;;;3.38;;
59607;SDS011;45426;44.726;10.390;2023-12-20T02:17:20;7.25;;;3.53;;
59607;SDS011;45426;44.726;10.390;2023-12-20T02:19:47;7.75;;;3.38;;
59607;SDS011;45426;44.726;10.390;2023-12-20T02:22:13;7.28;;;3.40;;
59607;SDS011;45426;44.726;10.390;2023-12-20T02:24:38;8.10;;;3.35;;
59607;SDS011;45426;44.726;10.390;2023-12-20T02:27:05;6.88;;;3.28;;
59607;SDS011;45426;44.726;10.390;2023-12-20T02:29:32;6.45;;;3.08;;
59607;SDS011;45426;44.726;10.390;2023-12-20T02:31:58;7.15;;;3.13;;
59607;SDS011;45426;44.726;10.390;2023-12-20T02:34:24;7.13;;;3.05;;
59607;SDS011;45426;44.726;10.390;2023-12-20T02:36:49;10.48;;;2.85;;
59607;SDS011;45426;44.726;10.390;2023-12-20T02:39:14;5.55;;;2.83;;
59607;SDS011;45426;44.726;10.390;2023-12-20T02:41:40;6.13;;;2.85;;
59607;SDS011;45426;44.726;10.390;2023-12-20T02:44:05;6.70;;;3.05;;
59607;SDS011;45426;44.726;10.390;2023-12-20T02:46:30;6.20;;;2.90;;
59607;SDS011;45426;44.726;10.390;2023-12-20T02:48:56;5.30;;;2.70;;
59607;SDS011;45426;44.726;10.390;2023-12-20T02:51:21;4.60;;;2.67;;
59607;SDS011;45426;44.726;10.390;2023-12-20T02:53:47;5.88;;;2.95;;
59607;SDS011;45426;44.726;10.390;2023-12-20T02:56:12;4.75;;;2.65;;
59607;SDS011;45426;44.726;10.390;2023-12-20T02:58:39;5.32;;;2.65;;
59607;SDS011;45426;44.726;10.390;2023-12-20T03:01:05;5.13;;;2.50;;
59607;SDS011;45426;44.726;10.390;2023-12-20T03:03:31;4.82;;;2.58;;
59607;SDS011;45426;44.726;10.390;2023-12-20T03:05:56;6.05;;;2.63;;
59607;SDS011;45426;44.726;10.390;2023-12-20T03:08:22;5.00;;;2.85;;
59607;SDS011;45426;44.726;10.390;2023-12-20T03:10:47;6.47;;;2.65;;
59607;SDS011;45426;44.726;10.390;2023-12-20T03:13:13;6.00;;;2.47;;
59607;SDS011;45426;44.726;10.390;2023-12-20T03:15:38;4.32;;;2.50;;
59607;SDS011;45426;44.726;10.390;2023-12-20T03:18:03;5.10;;;2.50;;
59607;SDS011;45426;44.726;10.390;2023-12-20T03:20:29;7.70;;;2.67;;
59607;SDS011;45426;44.726;10.390;2023-12-20T03:22:58;6.28;;;3.17;;
59607;SDS011;45426;44.726;10.390;2023-12-20T03:25:23;7.90;;;3.22;;
59607;SDS011;45426;44.726;10.390;2023-12-20T03:27:49;7.88;;;3.47;;
59607;SDS011;45426;44.726;10.390;2023-12-20T03:30:14;7.78;;;3.63;;
59607;SDS011;45426;44.726;10.390;2023-12-20T03:32:39;7.25;;;3.35;;
59607;SDS011;45426;44.726;10.390;2023-12-20T03:35:05;8.05;;;3.22;;
59607;SDS011;45426;44.726;10.390;2023-12-20T03:37:31;6.80;;;3.20;;
59607;SDS011;45426;44.726;10.390;2023-12-20T03:39:56;7.45;;;3.17;;
59607;SDS011;45426;44.726;10.390;2023-12-20T03:42:21;7.53;;;2.90;;
59607;SDS011;45426;44.726;10.390;2023-12-20T03:44:47;5.97;;;3.05;;
59607;SDS011;45426;44.726;10.390;2023-12-20T03:47:12;5.93;;;2.80;;
59607;SDS011;45426;44.726;10.390;2023-12-20T03:49:38;6.65;;;3.15;;
59607;SDS011;45426;44.726;10.390;2023-12-20T03:52:04;6.45;;;3.10;;
59607;SDS011;45426;44.726;10.390;2023-12-20T03:54:29;5.25;;;3.10;;
59607;SDS011;45426;44.726;10.390;2023-12-20T03:56:55;7.80;;;3.10;;
59607;SDS011;45426;44.726;10.390;2023-12-20T03:59:20;7.55;;;3.30;;
59607;SDS011;45426;44.726;10.390;2023-12-20T04:01:46;7.32;;;3.58;;
59607;SDS011;45426;44.726;10.390;2023-12-20T04:04:11;7.07;;;3.13;;
59607;SDS011;45426;44.726;10.390;2023-12-20T04:06:37;7.03;;;3.13;;
59607;SDS011;45426;44.726;10.390;2023-12-20T04:09:03;6.38;;;3.08;;
59607;SDS011;45426;44.726;10.390;2023-12-20T04:11:28;7.45;;;3.15;;
59607;SDS011;45426;44.726;10.390;2023-12-20T04:13:54;6.78;;;3.30;;
59607;SDS011;45426;44.726;10.390;2023-12-20T04:16:19;5.10;;;2.80;;
59607;SDS011;45426;44.726;10.390;2023-12-20T04:18:44;7.85;;;3.20;;
59607;SDS011;45426;44.726;10.390;2023-12-20T04:21:10;7.00;;;3.00;;
59607;SDS011;45426;44.726;10.390;2023-12-20T04:23:35;6.90;;;3.30;;
59607;SDS011;45426;44.726;10.390;2023-12-20T04:26:01;6.40;;;3.13;;
59607;SDS011;45426;44.726;10.390;2023-12-20T04:28:26;5.55;;;3.05;;
59607;SDS011;45426;44.726;10.390;2023-12-20T04:30:55;7.88;;;3.25;;
59607;SDS011;45426;44.726;10.390;2023-12-20T04:33:21;7.88;;;3.60;;
59607;SDS011;45426;44.726;10.390;2023-12-20T04:35:46;7.38;;;3.50;;
59607;SDS011;45426;44.726;10.390;2023-12-20T04:38:12;6.03;;;3.28;;
59607;SDS011;45426;44.726;10.390;2023-12-20T04:40:37;8.60;;;3.50;;
59607;SDS011;45426;44.726;10.390;2023-12-20T04:43:04;7.30;;;3.65;;
59607;SDS011;45426;44.726;10.390;2023-12-20T04:45:29;8.63;;;3.50;;
59607;SDS011;45426;44.726;10.390;2023-12-20T04:47:55;8.38;;;3.85;;
59607;SDS011;45426;44.726;10.390;2023-12-20T04:50:20;7.07;;;3.33;;
59607;SDS011;45426;44.726;10.390;2023-12-20T04:52:46;6.95;;;3.45;;
59607;SDS011;45426;44.726;10.390;2023-12-20T04:55:12;8.13;;;3.55;;
59607;SDS011;45426;44.726;10.390;2023-12-20T04:57:37;8.75;;;3.65;;
59607;SDS011;45426;44.726;10.390;2023-12-20T05:00:03;6.43;;;3.50;;
59607;SDS011;45426;44.726;10.390;2023-12-20T05:02:29;6.53;;;3.45;;
59607;SDS011;45426;44.726;10.390;2023-12-20T05:04:55;6.82;;;3.42;;
59607;SDS011;45426;44.726;10.390;2023-12-20T05:07:20;8.25;;;3.70;;
59607;SDS011;45426;44.726;10.390;2023-12-20T05:09:46;6.85;;;3.40;;
59607;SDS011;45426;44.726;10.390;2023-12-20T05:12:11;7.72;;;3.80;;
59607;SDS011;45426;44.726;10.390;2023-12-20T05:14:36;8.25;;;3.72;;
59607;SDS011;45426;44.726;10.390;2023-12-20T05:17:02;8.10;;;3.92;;
59607;SDS011;45426;44.726;10.390;2023-12-20T05:19:28;7.18;;;3.78;;
59607;SDS011;45426;44.726;10.390;2023-12-20T05:21:53;7.88;;;4.28;;
59607;SDS011;45426;44.726;10.390;2023-12-20T05:24:19;7.63;;;4.03;;
59607;SDS011;45426;44.726;10.390;2023-12-20T05:26:44;10.50;;;4.65;;
59607;SDS011;45426;44.726;10.390;2023-12-20T05:29:09;10.25;;;4.70;;
59607;SDS011;45426;44.726;10.390;2023-12-20T05:31:35;10.57;;;4.95;;
59607;SDS011;45426;44.726;10.390;2023-12-20T05:34:00;12.55;;;4.93;;
59607;SDS011;45426;44.726;10.390;2023-12-20T05:36:26;11.70;;;5.70;;
59607;SDS011;45426;44.726;10.390;2023-12-20T05:38:51;13.45;;;5.53;;
59607;SDS011;45426;44.726;10.390;2023-12-20T05:41:17;12.48;;;6.28;;
59607;SDS011;45426;44.726;10.390;2023-12-20T05:43:42;14.20;;;6.28;;
59607;SDS011;45426;44.726;10.390;2023-12-20T05:46:09;10.70;;;5.53;;
59607;SDS011;45426;44.726;10.390;2023-12-20T05:48:36;13.25;;;5.53;;
59607;SDS011;45426;44.726;10.390;2023-12-20T05:51:01;12.30;;;5.80;;
59607;SDS011;45426;44.726;10.390;2023-12-20T05:53:27;12.38;;;6.07;;
59607;SDS011;45426;44.726;10.390;2023-12-20T05:55:52;11.65;;;5.75;;
59607;SDS011;45426;44.726;10.390;2023-12-20T05:58:18;13.00;;;5.35;;
59607;SDS011;45426;44.726;10.390;2023-12-20T06:00:43;9.10;;;5.18;;
59607;SDS011;45426;44.726;10.390;2023-12-20T06:03:08;11.45;;;5.05;;
59607;SDS011;45426;44.726;10.390;2023-12-20T06:05:34;11.38;;;5.10;;
59607;SDS011;45426;44.726;10.390;2023-12-20T06:07:59;10.43;;;4.40;;
59607;SDS011;45426;44.726;10.390;2023-12-20T06:10:27;13.18;;;5.22;;
59607;SDS011;45426;44.726;10.390;2023-12-20T06:12:53;11.27;;;4.88;;
59607;SDS011;45426;44.726;10.390;2023-12-20T06:15:19;12.15;;;5.43;;
59607;SDS011;45426;44.726;10.390;2023-12-20T06:17:45;11.25;;;5.13;;
59607;SDS011;45426;44.726;10.390;2023-12-20T06:20:11;12.32;;;5.32;;
59607;SDS011;45426;44.726;10.390;2023-12-20T06:22:38;11.70;;;5.90;;
59607;SDS011;45426;44.726;10.390;2023-12-20T06:25:04;10.63;;;5.15;;
59607;SDS011;45426;44.726;10.390;2023-12-20T06:27:30;12.07;;;5.78;;
59607;SDS011;45426;44.726;10.390;2023-12-20T06:29:57;13.70;;;5.30;;
59607;SDS011;45426;44.726;10.390;2023-12-20T06:32:23;12.63;;;5.53;;
59607;SDS011;45426;44.726;10.390;2023-12-20T06:34:49;11.27;;;5.43;;
59607;SDS011;45426;44.726;10.390;2023-12-20T06:37:14;15.25;;;5.93;;
59607;SDS011;45426;44.726;10.390;2023-12-20T06:39:40;14.88;;;6.22;;
59607;SDS011;45426;44.726;10.390;2023-12-20T06:42:06;13.23;;;5.97;;
59607;SDS011;45426;44.726;10.390;2023-12-20T06:44:31;12.23;;;5.25;;
59607;SDS011;45426;44.726;10.390;2023-12-20T06:46:57;11.95;;;6.25;;
59607;SDS011;45426;44.726;10.390;2023-12-20T06:49:23;12.55;;;6.30;;
59607;SDS011;45426;44.726;10.390;2023-12-20T06:51:48;13.48;;;6.80;;
59607;SDS011;45426;44.726;10.390;2023-12-20T06:54:14;11.68;;;6.18;;
59607;SDS011;45426;44.726;10.390;2023-12-20T06:56:39;12.40;;;6.18;;
59607;SDS011;45426;44.726;10.390;2023-12-20T06:59:06;14.82;;;6.82;;
59607;SDS011;45426;44.726;10.390;2023-12-20T07:01:31;13.65;;;6.80;;
59607;SDS011;45426;44.726;10.390;2023-12-20T07:03:57;15.07;;;6.68;;
59607;SDS011;45426;44.726;10.390;2023-12-20T07:06:22;12.90;;;6.57;;
59607;SDS011;45426;44.726;10.390;2023-12-20T07:08:48;15.85;;;6.43;;
59607;SDS011;45426;44.726;10.390;2023-12-20T07:11:14;17.13;;;7.22;;
59607;SDS011;45426;44.726;10.390;2023-12-20T07:13:39;13.23;;;6.30;;
59607;SDS011;45426;44.726;10.390;2023-12-20T07:16:05;16.92;;;6.97;;
59607;SDS011;45426;44.726;10.390;2023-12-20T07:18:30;14.38;;;6.25;;
59607;SDS011;45426;44.726;10.390;2023-12-20T07:20:56;14.20;;;6.80;;
59607;SDS011;45426;44.726;10.390;2023-12-20T07:23:21;13.45;;;6.45;;
59607;SDS011;45426;44.726;10.390;2023-12-20T07:25:47;14.50;;;6.63;;
59607;SDS011;45426;44.726;10.390;2023-12-20T07:28:12;15.35;;;7.28;;
59607;SDS011;45426;44.726;10.390;2023-12-20T07:30:38;15.90;;;7.43;;
59607;SDS011;45426;44.726;10.390;2023-12-20T07:33:03;16.88;;;6.97;;
59607;SDS011;45426;44.726;10.390;2023-12-20T07:35:29;20.70;;;7.72;;
59607;SDS011;45426;44.726;10.390;2023-12-20T07:37:54;20.08;;;7.90;;
59607;SDS011;45426;44.726;10.390;2023-12-20T07:40:19;17.30;;;8.00;;
59607;SDS011;45426;44.726;10.390;2023-12-20T07:42:45;16.80;;;8.55;;
59607;SDS011;45426;44.726;10.390;2023-12-20T07:45:10;17.52;;;7.57;;
59607;SDS011;45426;44.726;10.390;2023-12-20T07:47:36;16.60;;;8.20;;
59607;SDS011;45426;44.726;10.390;2023-12-20T07:50:02;20.50;;;8.60;;
59607;SDS011;45426;44.726;10.390;2023-12-20T07:52:28;17.55;;;7.75;;
59607;SDS011;45426;44.726;10.390;2023-12-20T07:54:54;17.10;;;8.13;;
59607;SDS011;45426;44.726;10.390;2023-12-20T07:57:20;18.42;;;8.00;;
59607;SDS011;45426;44.726;10.390;2023-12-20T07:59:46;17.95;;;7.65;;
59607;SDS011;45426;44.726;10.390;2023-12-20T08:02:11;18.38;;;8.25;;
59607;SDS011;45426;44.726;10.390;2023-12-20T08:04:36;19.25;;;9.30;;
59607;SDS011;45426;44.726;10.390;2023-12-20T08:07:03;22.17;;;10.35;;
59607;SDS011;45426;44.726;10.390;2023-12-20T08:09:29;21.30;;;8.85;;
59607;SDS011;45426;44.726;10.390;2023-12-20T08:11:54;19.05;;;8.10;;
59607;SDS011;45426;44.726;10.390;2023-12-20T08:14:20;19.17;;;8.75;;
59607;SDS011;45426;44.726;10.390;2023-12-20T08:16:46;19.35;;;8.73;;
59607;SDS011;45426;44.726;10.390;2023-12-20T08:19:11;23.08;;;9.50;;
59607;SDS011;45426;44.726;10.390;2023-12-20T08:21:37;20.30;;;9.50;;
59607;SDS011;45426;44.726;10.390;2023-12-20T08:24:03;23.45;;;9.63;;
59607;SDS011;45426;44.726;10.390;2023-12-20T08:26:28;20.30;;;9.35;;
59607;SDS011;45426;44.726;10.390;2023-12-20T08:28:54;20.80;;;10.20;;
59607;SDS011;45426;44.726;10.390;2023-12-20T08:31:19;18.30;;;9.90;;
59607;SDS011;45426;44.726;10.390;2023-12-20T08:33:46;26.63;;;11.20;;
59607;SDS011;45426;44.726;10.390;2023-12-20T08:36:13;20.17;;;9.85;;
59607;SDS011;45426;44.726;10.390;2023-12-20T08:38:38;35.70;;;15.18;;
59607;SDS011;45426;44.726;10.390;2023-12-20T08:41:04;22.85;;;10.65;;
59607;SDS011;45426;44.726;10.390;2023-12-20T08:43:35;18.50;;;8.45;;
59607;SDS011;45426;44.726;10.390;2023-12-20T08:46:01;19.20;;;8.77;;
59607;SDS011;45426;44.726;10.390;2023-12-20T08:48:27;19.65;;;8.68;;
59607;SDS011;45426;44.726;10.390;2023-12-20T08:50:53;19.33;;;8.88;;
59607;SDS011;45426;44.726;10.390;2023-12-20T08:53:18;23.42;;;8.85;;
59607;SDS011;45426;44.726;10.390;2023-12-20T08:55:44;18.05;;;7.88;;
59607;SDS011;45426;44.726;10.390;2023-12-20T08:58:10;18.70;;;7.38;;
59607;SDS011;45426;44.726;10.390;2023-12-20T09:00:35;15.70;;;6.93;;
59607;SDS011;45426;44.726;10.390;2023-12-20T09:03:01;17.02;;;6.88;;
59607;SDS011;45426;44.726;10.390;2023-12-20T09:05:27;16.88;;;7.65;;
59607;SDS011;45426;44.726;10.390;2023-12-20T09:07:53;14.95;;;7.10;;
59607;SDS011;45426;44.726;10.390;2023-12-20T09:10:19;19.27;;;8.15;;
59607;SDS011;45426;44.726;10.390;2023-12-20T09:12:50;17.05;;;8.07;;
59607;SDS011;45426;44.726;10.390;2023-12-20T09:15:18;18.83;;;7.97;;
59607;SDS011;45426;44.726;10.390;2023-12-20T09:17:43;17.85;;;7.18;;
59607;SDS011;45426;44.726;10.390;2023-12-20T09:20:09;23.92;;;7.47;;
59607;SDS011;45426;44.726;10.390;2023-12-20T09:22:35;16.27;;;7.15;;
59607;SDS011;45426;44.726;10.390;2023-12-20T09:25:00;17.17;;;6.82;;
59607;SDS011;45426;44.726;10.390;2023-12-20T09:27:27;16.52;;;7.68;;
59607;SDS011;45426;44.726;10.390;2023-12-20T09:29:52;16.92;;;7.45;;
59607;SDS011;45426;44.726;10.390;2023-12-20T09:32:18;14.63;;;7.32;;
59607;SDS011;45426;44.726;10.390;2023-12-20T09:34:45;16.45;;;7.22;;
59607;SDS011;45426;44.726;10.390;2023-12-20T09:37:11;19.25;;;7.65;;
59607;SDS011;45426;44.726;10.390;2023-12-20T09:39:36;20.13;;;9.07;;
59607;SDS011;45426;44.726;10.390;2023-12-20T09:42:05;19.38;;;7.30;;
59607;SDS011;45426;44.726;10.390;2023-12-20T09:44:31;19.42;;;7.70;;
59607;SDS011;45426;44.726;10.390;2023-12-20T09:46:59;18.23;;;7.30;;
59607;SDS011;45426;44.726;10.390;2023-12-20T09:49:28;17.90;;;7.47;;
59607;SDS011;45426;44.726;10.390;2023-12-20T09:51:55;25.38;;;8.95;;
59607;SDS011;45426;44.726;10.390;2023-12-20T09:54:21;17.92;;;7.45;;
59607;SDS011;45426;44.726;10.390;2023-12-20T09:56:48;23.73;;;7.75;;
59607;SDS011;45426;44.726;10.390;2023-12-20T09:59:13;16.40;;;7.30;;
59607;SDS011;45426;44.726;10.390;2023-12-20T10:01:40;14.38;;;6.35;;
59607;SDS011;45426;44.726;10.390;2023-12-20T10:04:06;21.52;;;8.48;;
59607;SDS011;45426;44.726;10.390;2023-12-20T10:06:43;17.88;;;7.30;;
59607;SDS011;45426;44.726;10.390;2023-12-20T10:09:10;19.90;;;6.60;;
59607;SDS011;45426;44.726;10.390;2023-12-20T10:11:36;15.57;;;6.18;;
59607;SDS011;45426;44.726;10.390;2023-12-20T10:14:03;16.45;;;6.25;;
59607;SDS011;45426;44.726;10.390;2023-12-20T10:16:29;14.00;;;5.65;;
59607;SDS011;45426;44.726;10.390;2023-12-20T10:18:56;12.43;;;5.68;;
59607;SDS011;45426;44.726;10.390;2023-12-20T10:21:25;14.43;;;5.88;;
59607;SDS011;45426;44.726;10.390;2023-12-20T10:23:51;11.18;;;5.38;;
59607;SDS011;45426;44.726;10.390;2023-12-20T10:26:22;15.50;;;5.40;;
59607;SDS011;45426;44.726;10.390;2023-12-20T10:28:59;11.60;;;5.13;;
59607;SDS011;45426;44.726;10.390;2023-12-20T10:31:32;11.18;;;5.18;;
59607;SDS011;45426;44.726;10.390;2023-12-20T10:33:59;13.73;;;5.13;;
59607;SDS011;45426;44.726;10.390;2023-12-20T10:36:26;12.20;;;5.15;;
59607;SDS011;45426;44.726;10.390;2023-12-20T10:38:55;13.45;;;5.55;;
59607;SDS011;45426;44.726;10.390;2023-12-20T10:41:26;12.27;;;5.70;;
59607;SDS011;45426;44.726;10.390;2023-12-20T10:43:54;14.23;;;5.32;;
59607;SDS011;45426;44.726;10.390;2023-12-20T10:46:23;12.00;;;5.25;;
59607;SDS011;45426;44.726;10.390;2023-12-20T10:48:51;14.02;;;5.65;;
59607;SDS011;45426;44.726;10.390;2023-12-20T10:51:18;12.55;;;5.38;;
59607;SDS011;45426;44.726;10.390;2023-12-20T10:53:46;14.27;;;5.25;;
59607;SDS011;45426;44.726;10.390;2023-12-20T10:56:15;19.20;;;6.50;;
59607;SDS011;45426;44.726;10.390;2023-12-20T10:58:45;14.80;;;5.88;;
59607;SDS011;45426;44.726;10.390;2023-12-20T11:01:12;17.63;;;7.68;;
59607;SDS011;45426;44.726;10.390;2023-12-20T11:03:42;19.77;;;8.25;;
59607;SDS011;45426;44.726;10.390;2023-12-20T11:08:50;18.42;;;7.22;;
59607;SDS011;45426;44.726;10.390;2023-12-20T11:11:26;17.27;;;7.82;;
59607;SDS011;45426;44.726;10.390;2023-12-20T11:14:05;19.65;;;7.90;;
59607;SDS011;45426;44.726;10.390;2023-12-20T11:16:36;18.10;;;7.70;;
59607;SDS011;45426;44.726;10.390;2023-12-20T11:19:04;16.77;;;7.18;;
59607;SDS011;45426;44.726;10.390;2023-12-20T11:21:30;16.50;;;6.68;;
59607;SDS011;45426;44.726;10.390;2023-12-20T11:23:56;15.57;;;8.07;;
59607;SDS011;45426;44.726;10.390;2023-12-20T11:26:28;21.83;;;9.35;;
59607;SDS011;45426;44.726;10.390;2023-12-20T11:28:54;23.88;;;10.73;;
59607;SDS011;45426;44.726;10.390;2023-12-20T11:31:43;25.90;;;12.25;;
59607;SDS011;45426;44.726;10.390;2023-12-20T11:34:14;24.55;;;11.73;;
59607;SDS011;45426;44.726;10.390;2023-12-20T11:36:42;23.67;;;10.95;;
59607;SDS011;45426;44.726;10.390;2023-12-20T11:39:08;23.48;;;10.32;;
59607;SDS011;45426;44.726;10.390;2023-12-20T11:41:35;20.08;;;10.68;;
59607;SDS011;45426;44.726;10.390;2023-12-20T11:44:01;23.27;;;10.60;;
59607;SDS011;45426;44.726;10.390;2023-12-20T11:46:29;21.55;;;11.40;;
59607;SDS011;45426;44.726;10.390;2023-12-20T11:48:56;22.90;;;10.95;;
59607;SDS011;45426;44.726;10.390;2023-12-20T11:51:22;23.85;;;10.55;;
59607;SDS011;45426;44.726;10.390;2023-12-20T11:53:51;23.42;;;10.98;;
59607;SDS011;45426;44.726;10.390;2023-12-20T11:56:18;26.67;;;10.05;;
59607;SDS011;45426;44.726;10.390;2023-12-20T11:58:43;22.88;;;11.18;;
59607;SDS011;45426;44.726;10.390;2023-12-20T12:01:09;24.10;;;10.98;;
59607;SDS011;45426;44.726;10.390;2023-12-20T12:03:34;20.77;;;11.25;;
59607;SDS011;45426;44.726;10.390;2023-12-20T12:06:00;23.42;;;11.70;;
59607;SDS011;45426;44.726;10.390;2023-12-20T12:08:29;23.63;;;10.75;;
59607;SDS011;45426;44.726;10.390;2023-12-20T12:10:54;25.95;;;12.43;;
59607;SDS011;45426;44.726;10.390;2023-12-20T12:13:20;24.45;;;10.05;;
59607;SDS011;45426;44.726;10.390;2023-12-20T12:15:45;21.17;;;9.80;;
59607;SDS011;45426;44.726;10.390;2023-12-20T12:18:15;24.63;;;10.40;;
59607;SDS011;45426;44.726;10.390;2023-12-20T12:20:41;20.42;;;9.88;;
59607;SDS011;45426;44.726;10.390;2023-12-20T12:23:06;22.85;;;9.80;;
59607;SDS011;45426;44.726;10.390;2023-12-20T12:25:33;24.85;;;11.23;;
59607;SDS011;45426;44.726;10.390;2023-12-20T12:28:01;22.30;;;10.23;;
59607;SDS011;45426;44.726;10.390;2023-12-20T12:30:26;21.27;;;10.57;;
59607;SDS011;45426;44.726;10.390;2023-12-20T12:32:52;24.33;;;11.10;;
59607;SDS011;45426;44.726;10.390;2023-12-20T12:35:18;29.20;;;13.88;;
59607;SDS011;45426;44.726;10.390;2023-12-20T12:37:44;107.22;;;39.83;;
59607;SDS011;45426;44.726;10.390;2023-12-20T12:40:10;28.23;;;12.88;;
59607;SDS011;45426;44.726;10.390;2023-12-20T12:42:38;26.58;;;13.45;;
59607;SDS011;45426;44.726;10.390;2023-12-20T12:45:04;28.08;;;14.02;;
59607;SDS011;45426;44.726;10.390;2023-12-20T12:47:30;22.75;;;11.68;;
59607;SDS011;45426;44.726;10.390;2023-12-20T12:49:55;24.95;;;11.05;;
59607;SDS011;45426;44.726;10.390;2023-12-20T12:52:21;19.67;;;10.32;;
59607;SDS011;45426;44.726;10.390;2023-12-20T12:54:46;24.58;;;11.65;;
59607;SDS011;45426;44.726;10.390;2023-12-20T12:57:13;33.95;;;14.30;;
59607;SDS011;45426;44.726;10.390;2023-12-20T12:59:40;31.67;;;13.15;;
59607;SDS011;45426;44.726;10.390;2023-12-20T13:02:06;39.85;;;15.63;;
59607;SDS011;45426;44.726;10.390;2023-12-20T13:04:31;23.00;;;10.90;;
59607;SDS011;45426;44.726;10.390;2023-12-20T13:06:57;23.95;;;11.02;;
59607;SDS011;45426;44.726;10.390;2023-12-20T13:09:22;22.05;;;11.20;;
59607;SDS011;45426;44.726;10.390;2023-12-20T13:11:48;23.70;;;11.40;;
59607;SDS011;45426;44.726;10.390;2023-12-20T13:14:13;26.90;;;11.82;;
59607;SDS011;45426;44.726;10.390;2023-12-20T13:16:41;31.63;;;14.32;;
59607;SDS011;45426;44.726;10.390;2023-12-20T13:19:06;40.85;;;15.07;;
59607;SDS011;45426;44.726;10.390;2023-12-20T13:21:32;28.02;;;12.52;;
59607;SDS011;45426;44.726;10.390;2023-12-20T13:23:57;30.05;;;13.68;;
59607;SDS011;45426;44.726;10.390;2023-12-20T13:26:23;29.70;;;13.05;;
59607;SDS011;45426;44.726;10.390;2023-12-20T13:28:48;23.63;;;12.20;;
59607;SDS011;45426;44.726;10.390;2023-12-20T13:31:14;24.23;;;12.30;;
59607;SDS011;45426;44.726;10.390;2023-12-20T13:33:39;26.00;;;12.20;;
59607;SDS011;45426;44.726;10.390;2023-12-20T13:36:05;24.38;;;11.50;;
59607;SDS011;45426;44.726;10.390;2023-12-20T13:38:31;24.83;;;11.20;;
59607;SDS011;45426;44.726;10.390;2023-12-20T13:40:57;21.80;;;10.88;;
59607;SDS011;45426;44.726;10.390;2023-12-20T13:43:23;24.48;;;11.88;;
59607;SDS011;45426;44.726;10.390;2023-12-20T13:45:49;27.77;;;12.80;;
59607;SDS011;45426;44.726;10.390;2023-12-20T13:48:15;26.30;;;13.00;;
59607;SDS011;45426;44.726;10.390;2023-12-20T13:50:40;26.00;;;12.63;;
59607;SDS011;45426;44.726;10.390;2023-12-20T13:53:06;29.98;;;13.38;;
59607;SDS011;45426;44.726;10.390;2023-12-20T13:55:31;23.90;;;11.63;;
59607;SDS011;45426;44.726;10.390;2023-12-20T13:57:56;27.90;;;12.13;;
59607;SDS011;45426;44.726;10.390;2023-12-20T14:00:22;26.17;;;12.05;;
59607;SDS011;45426;44.726;10.390;2023-12-20T14:02:48;24.92;;;11.43;;
59607;SDS011;45426;44.726;10.390;2023-12-20T14:05:14;26.45;;;12.70;;
59607;SDS011;45426;44.726;10.390;2023-12-20T14:07:42;21.85;;;11.20;;
59607;SDS011;45426;44.726;10.390;2023-12-20T14:10:10;23.50;;;12.20;;
59607;SDS011;45426;44.726;10.390;2023-12-20T14:12:37;28.98;;;11.73;;
59607;SDS011;45426;44.726;10.390;2023-12-20T14:15:03;25.88;;;12.35;;
59607;SDS011;45426;44.726;10.390;2023-12-20T14:17:29;24.70;;;11.82;;
59607;SDS011;45426;44.726;10.390;2023-12-20T14:19:54;24.77;;;11.20;;